createdAt,value
2023-01-29T00:02:10.082Z,16.10
2023-01-29T00:04:40.893Z,16.10
2023-01-29T00:07:11.718Z,16.10
2023-01-29T00:09:42.471Z,16.10
2023-01-29T00:12:13.338Z,16.10
2023-01-29T00:14:44.033Z,16.10
2023-01-29T00:17:14.776Z,16.00
2023-01-29T00:19:45.551Z,16.10
2023-01-29T00:22:16.220Z,16.00
2023-01-29T00:24:46.918Z,16.00
2023-01-29T00:27:17.661Z,16.00
2023-01-29T00:29:49.832Z,16.00
2023-01-29T00:32:20.665Z,16.10
2023-01-29T00:34:51.470Z,16.10
2023-01-29T00:37:22.255Z,16.10
2023-01-29T00:39:52.965Z,16.10
2023-01-29T00:42:41.584Z,16.10
2023-01-29T00:45:13.305Z,16.10
2023-01-29T00:47:44.184Z,16.20
2023-01-29T00:50:21.340Z,16.20
2023-01-29T00:52:52.280Z,16.20
2023-01-29T00:55:24.785Z,16.30
2023-01-29T00:57:55.764Z,16.30
2023-01-29T01:00:26.970Z,16.40
2023-01-29T01:03:10.019Z,16.40
2023-01-29T01:05:40.669Z,16.40
2023-01-29T01:08:29.592Z,16.40
2023-01-29T01:11:09.530Z,16.40
2023-01-29T01:13:40.263Z,16.40
2023-01-29T01:16:19.689Z,16.40
2023-01-29T01:18:53.934Z,16.50
2023-01-29T01:21:24.657Z,16.50
2023-01-29T01:23:55.376Z,16.50
2023-01-29T01:26:26.404Z,16.60
2023-01-29T01:29:01.684Z,16.60
2023-01-29T01:31:37.640Z,16.60
2023-01-29T01:34:08.509Z,16.60
2023-01-29T01:36:39.199Z,16.60
2023-01-29T01:39:14.092Z,16.60
2023-01-29T01:41:44.913Z,16.70
2023-01-29T01:44:52.465Z,16.70
2023-01-29T01:47:28.204Z,16.80
2023-01-29T01:50:03.199Z,16.80
2023-01-29T01:52:35.311Z,16.90
2023-01-29T01:55:07.293Z,17.00
2023-01-29T01:57:38.664Z,17.00
2023-01-29T02:00:12.232Z,17.00
2023-01-29T02:03:02.938Z,17.10
2023-01-29T02:05:55.960Z,17.10
2023-01-29T02:09:04.699Z,17.10
2023-01-29T02:11:35.578Z,17.20
2023-01-29T02:14:06.448Z,17.30
2023-01-29T02:20:19.732Z,17.40
2023-01-29T02:23:15.318Z,17.50
2023-01-29T02:25:54.406Z,17.60
2023-01-29T02:28:27.519Z,17.70
2023-01-29T02:31:29.329Z,17.80
2023-01-29T02:34:05.364Z,17.90
2023-01-29T02:36:50.566Z,17.90
2023-01-29T02:39:26.109Z,18.00
2023-01-29T02:42:19.267Z,18.00
2023-01-29T02:45:04.777Z,18.10
2023-01-29T02:47:41.178Z,18.20
2023-01-29T02:50:17.921Z,18.20
2023-01-29T02:52:55.276Z,18.30
2023-01-29T02:55:42.910Z,18.30
2023-01-29T02:58:22.073Z,18.50
2023-01-29T03:00:55.657Z,18.50
2023-01-29T03:03:44.092Z,18.60
2023-01-29T03:06:21.564Z,18.70
2023-01-29T03:09:00.369Z,18.80
2023-01-29T03:11:33.669Z,18.90
2023-01-29T03:14:29.535Z,18.90
2023-01-29T03:17:00.775Z,19.00
2023-01-29T03:19:42.831Z,19.10
2023-01-29T03:22:18.618Z,19.20
2023-01-29T03:25:14.852Z,19.30
2023-01-29T03:28:05.728Z,19.40
2023-01-29T03:30:56.626Z,19.50
2023-01-29T03:33:28.914Z,19.60
2023-01-29T03:36:11.215Z,19.70
2023-01-29T03:38:42.123Z,19.80
2023-01-29T03:41:18.101Z,20.00
2023-01-29T03:43:53.865Z,20.10
2023-01-29T03:46:36.996Z,20.20
2023-01-29T03:49:13.305Z,20.40
2023-01-29T03:51:55.323Z,20.50
2023-01-29T03:54:40.481Z,20.60
2023-01-29T03:57:19.405Z,20.70
2023-01-29T04:00:18.083Z,20.80
2023-01-29T04:03:17.290Z,20.90
2023-01-29T04:06:03.433Z,21.00
2023-01-29T04:08:36.826Z,21.10
2023-01-29T04:11:10.072Z,21.20
2023-01-29T04:13:42.549Z,21.30
2023-01-29T04:16:15.806Z,21.40
2023-01-29T04:18:49.335Z,21.40
2023-01-29T04:21:21.210Z,21.60
2023-01-29T04:23:51.933Z,21.70
2023-01-29T04:26:31.447Z,21.80
2023-01-29T04:29:13.656Z,21.90
2023-01-29T04:31:50.077Z,22.00
2023-01-29T04:34:52.756Z,22.10
2023-01-29T04:37:40.765Z,22.20
2023-01-29T04:40:33.189Z,22.30
2023-01-29T04:43:27.579Z,22.30
2023-01-29T04:46:24.853Z,22.40
2023-01-29T04:49:09.796Z,22.50
2023-01-29T04:51:51.971Z,22.60
2023-01-29T04:54:28.141Z,22.70
2023-01-29T04:57:01.354Z,22.80
2023-01-29T04:59:37.434Z,22.90
2023-01-29T05:02:10.858Z,23.00
2023-01-29T05:04:43.877Z,23.10
2023-01-29T05:07:17.420Z,23.20
2023-01-29T05:09:49.315Z,23.30
2023-01-29T05:12:20.814Z,23.40
2023-01-29T05:14:53.508Z,23.40
2023-01-29T05:17:24.394Z,23.40
2023-01-29T05:19:55.184Z,23.40
2023-01-29T05:22:28.435Z,23.40
2023-01-29T05:24:58.581Z,23.40
2023-01-29T05:27:54.811Z,23.50
2023-01-29T05:30:25.490Z,23.60
2023-01-29T05:32:56.158Z,23.70
2023-01-29T05:35:27.044Z,23.70
2023-01-29T05:37:58.908Z,23.80
2023-01-29T05:40:29.939Z,23.80
2023-01-29T05:43:00.637Z,23.90
2023-01-29T05:45:31.466Z,23.90
2023-01-29T05:48:02.678Z,24.00
2023-01-29T05:50:33.545Z,24.10
2023-01-29T05:53:05.021Z,24.10
2023-01-29T05:55:35.704Z,24.10
2023-01-29T05:58:07.784Z,24.20
2023-01-29T06:00:38.786Z,24.30
2023-01-29T06:03:09.873Z,24.30
2023-01-29T06:05:44.095Z,24.30
2023-01-29T06:08:14.789Z,24.40
2023-01-29T06:10:47.676Z,24.40
2023-01-29T06:13:17.773Z,24.40
2023-01-29T06:15:49.048Z,24.40
2023-01-29T06:18:22.491Z,24.40
2023-01-29T06:20:53.272Z,24.50
2023-01-29T06:23:23.948Z,24.60
2023-01-29T06:25:54.622Z,24.60
2023-01-29T06:28:25.435Z,24.60
2023-01-29T06:30:58.262Z,24.60
2023-01-29T06:33:29.943Z,24.60
2023-01-29T06:36:06.677Z,24.50
2023-01-29T06:38:39.280Z,24.50
2023-01-29T06:41:14.360Z,24.50
2023-01-29T06:43:47.010Z,24.50
2023-01-29T06:46:18.239Z,24.60
2023-01-29T06:48:48.929Z,24.60
2023-01-29T06:51:21.554Z,24.60
2023-01-29T06:53:54.220Z,24.60
2023-01-29T06:56:25.262Z,24.60
2023-01-29T06:58:57.793Z,24.60
2023-01-29T07:01:36.138Z,24.60
2023-01-29T07:04:00.549Z,24.60
2023-01-29T07:06:32.164Z,24.60
2023-01-29T07:09:05.342Z,24.60
2023-01-29T07:11:39.003Z,24.70
2023-01-29T07:14:10.002Z,24.70
2023-01-29T07:16:40.683Z,24.80
2023-01-29T07:19:11.373Z,24.80
2023-01-29T07:21:42.047Z,24.80
2023-01-29T07:24:12.797Z,24.80
2023-01-29T07:26:43.584Z,24.80
2023-01-29T07:29:14.483Z,24.80
2023-01-29T07:31:45.283Z,24.80
2023-01-29T07:34:16.133Z,24.80
2023-01-29T07:36:46.820Z,24.70
2023-01-29T07:39:17.677Z,24.70
2023-01-29T07:41:50.201Z,24.70
2023-01-29T07:44:20.878Z,24.70
2023-01-29T07:46:51.671Z,24.70
2023-01-29T07:49:22.771Z,24.70
2023-01-29T07:51:53.455Z,24.70
2023-01-29T07:54:24.366Z,24.70
2023-01-29T07:56:55.312Z,24.60
2023-01-29T07:59:26.107Z,24.60
2023-01-29T08:01:57.037Z,24.60
2023-01-29T08:04:27.920Z,24.60
2023-01-29T08:06:58.813Z,24.60
2023-01-29T08:09:29.603Z,24.60
2023-01-29T08:12:03.444Z,24.60
2023-01-29T08:14:35.097Z,24.50
2023-01-29T08:17:05.835Z,24.50
2023-01-29T08:19:36.544Z,24.50
2023-01-29T08:22:07.992Z,24.50
2023-01-29T08:24:53.322Z,24.50
2023-01-29T08:27:11.311Z,24.50
2023-01-29T08:29:42.096Z,24.50
2023-01-29T08:32:13.168Z,24.60
2023-01-29T08:34:43.830Z,24.50
2023-01-29T08:37:14.574Z,24.50
2023-01-29T08:39:45.265Z,24.50
2023-01-29T08:42:16.058Z,24.50
2023-01-29T08:44:46.734Z,24.50
2023-01-29T08:47:17.496Z,24.40
2023-01-29T08:49:49.765Z,24.40
2023-01-29T08:52:20.422Z,24.40
2023-01-29T08:54:51.135Z,24.40
2023-01-29T08:57:21.836Z,24.40
2023-01-29T08:59:52.613Z,24.30
2023-01-29T09:02:23.377Z,24.40
2023-01-29T09:04:54.071Z,24.40
2023-01-29T09:07:24.941Z,24.40
2023-01-29T09:09:56.631Z,24.40
2023-01-29T09:12:27.620Z,24.40
2023-01-29T09:14:58.432Z,24.30
2023-01-29T09:17:29.096Z,24.30
2023-01-29T09:19:59.909Z,24.30
2023-01-29T09:22:30.934Z,24.30
2023-01-29T09:25:01.634Z,24.30
2023-01-29T09:27:32.509Z,24.30
2023-01-29T09:30:03.481Z,24.20
2023-01-29T09:32:53.576Z,24.20
2023-01-29T09:35:07.162Z,24.20
2023-01-29T09:37:38.095Z,24.20
2023-01-29T09:40:10.178Z,24.10
2023-01-29T09:42:49.667Z,24.10
2023-01-29T09:45:32.298Z,24.10
2023-01-29T09:48:06.928Z,24.00
2023-01-29T09:50:49.313Z,24.00
2023-01-29T09:53:25.540Z,24.00
2023-01-29T09:56:01.546Z,23.90
2023-01-29T09:58:34.786Z,23.90
2023-01-29T10:01:44.393Z,23.80
2023-01-29T10:04:38.529Z,23.80
2023-01-29T10:07:39.093Z,23.80
2023-01-29T10:10:12.615Z,23.70
2023-01-29T10:13:14.511Z,23.70
2023-01-29T10:16:10.336Z,23.70
2023-01-29T10:18:52.546Z,23.60
2023-01-29T10:21:46.609Z,23.60
2023-01-29T10:24:22.586Z,23.50
2023-01-29T10:26:54.818Z,23.50
2023-01-29T10:29:26.351Z,23.40
2023-01-29T10:32:00.744Z,23.40
2023-01-29T10:34:34.078Z,23.40
2023-01-29T10:37:06.341Z,23.40
2023-01-29T10:39:37.501Z,23.30
2023-01-29T10:42:33.159Z,23.30
2023-01-29T10:45:08.897Z,23.30
2023-01-29T10:47:57.023Z,23.20
2023-01-29T10:50:48.131Z,23.20
2023-01-29T10:53:42.674Z,23.20
2023-01-29T10:56:32.464Z,23.20
2023-01-29T10:59:06.537Z,23.10
2023-01-29T11:01:37.307Z,23.10
2023-01-29T11:04:10.571Z,23.10
2023-01-29T11:06:41.722Z,23.10
2023-01-29T11:09:20.843Z,23.00
2023-01-29T11:11:55.996Z,23.00
2023-01-29T11:14:29.205Z,23.00
2023-01-29T11:17:00.153Z,22.90
2023-01-29T11:19:42.703Z,22.90
2023-01-29T11:22:18.864Z,22.90
2023-01-29T11:24:51.228Z,22.90
2023-01-29T11:27:30.891Z,22.80
2023-01-29T11:30:01.981Z,22.80
2023-01-29T11:32:35.416Z,22.80
2023-01-29T11:35:20.414Z,22.80
2023-01-29T11:37:52.723Z,22.70
2023-01-29T11:40:26.060Z,22.70
2023-01-29T11:42:56.893Z,22.70
2023-01-29T11:45:33.768Z,22.70
2023-01-29T11:48:04.930Z,22.60
2023-01-29T11:50:48.615Z,22.60
2023-01-29T11:53:43.465Z,22.60
2023-01-29T11:56:26.940Z,22.60
2023-01-29T11:58:59.260Z,22.50
2023-01-29T12:01:35.526Z,22.50
2023-01-29T12:04:19.067Z,22.50
2023-01-29T12:06:53.853Z,22.40
2023-01-29T12:09:31.128Z,22.40
2023-01-29T12:14:57.714Z,22.40
2023-01-29T12:17:36.164Z,22.30
2023-01-29T12:20:21.085Z,22.30
2023-01-29T12:23:01.265Z,22.30
2023-01-29T12:25:39.865Z,22.30
2023-01-29T12:28:25.468Z,22.20
2023-01-29T12:31:16.912Z,22.20
2023-01-29T12:34:02.060Z,22.20
2023-01-29T12:36:41.067Z,22.20
2023-01-29T12:39:14.391Z,22.10
2023-01-29T12:41:47.661Z,22.10
2023-01-29T12:44:21.291Z,22.10
2023-01-29T12:46:57.332Z,22.10
2023-01-29T12:49:36.602Z,22.00
2023-01-29T12:52:27.963Z,22.00
2023-01-29T12:55:04.193Z,22.00
2023-01-29T12:57:52.624Z,22.00
2023-01-29T13:00:38.178Z,21.90
2023-01-29T13:03:26.209Z,21.90
2023-01-29T13:05:59.487Z,21.90
2023-01-29T13:08:41.561Z,21.90
2023-01-29T13:11:17.439Z,21.80
2023-01-29T13:14:09.071Z,21.80
2023-01-29T13:16:42.478Z,21.70
2023-01-29T13:19:23.029Z,21.70
2023-01-29T13:22:01.113Z,21.70
2023-01-29T13:24:40.241Z,21.70
2023-01-29T13:27:13.584Z,21.60
2023-01-29T13:29:45.706Z,21.60
2023-01-29T13:32:18.949Z,21.60
2023-01-29T13:34:55.022Z,21.60
2023-01-29T13:37:30.973Z,21.50
2023-01-29T13:40:03.793Z,21.50
2023-01-29T13:42:51.840Z,21.50
2023-01-29T13:45:25.008Z,21.50
2023-01-29T13:47:56.487Z,21.40
2023-01-29T13:50:35.859Z,21.40
2023-01-29T13:53:09.339Z,21.40
2023-01-29T13:55:41.747Z,21.30
2023-01-29T13:58:17.993Z,21.30
2023-01-29T14:00:51.208Z,21.20
2023-01-29T14:03:29.995Z,21.20
2023-01-29T14:06:03.471Z,21.20
2023-01-29T14:08:42.615Z,21.10
2023-01-29T14:11:19.117Z,21.10
2023-01-29T14:13:52.999Z,21.10
2023-01-29T14:16:26.368Z,21.10
2023-01-29T14:19:04.942Z,21.00
2023-01-29T14:21:40.845Z,21.00
2023-01-29T14:24:23.440Z,21.00
2023-01-29T14:26:58.353Z,20.90
2023-01-29T14:29:35.541Z,20.90
2023-01-29T14:32:29.256Z,20.90
2023-01-29T14:35:05.218Z,20.90
2023-01-29T14:37:41.218Z,20.80
2023-01-29T14:40:25.319Z,20.80
2023-01-29T14:43:15.069Z,20.80
2023-01-29T14:45:46.288Z,20.80
2023-01-29T14:48:40.489Z,20.70
2023-01-29T14:51:19.916Z,20.70
2023-01-29T14:53:56.250Z,20.70
2023-01-29T14:56:38.365Z,20.60
2023-01-29T14:59:17.772Z,20.60
2023-01-29T15:01:51.604Z,20.50
2023-01-29T15:04:26.193Z,20.50
2023-01-29T15:07:12.891Z,20.50
2023-01-29T15:10:18.937Z,20.40
2023-01-29T15:12:50.114Z,20.40
2023-01-29T15:15:33.714Z,20.30
2023-01-29T15:18:27.893Z,20.30
2023-01-29T15:21:15.673Z,20.20
2023-01-29T15:23:52.854Z,20.20
2023-01-29T15:26:27.366Z,20.10
2023-01-29T15:29:04.853Z,20.10
2023-01-29T15:31:33.021Z,20.00
2023-01-29T15:34:06.506Z,20.00
2023-01-29T15:36:40.287Z,20.00
2023-01-29T15:39:19.289Z,20.00
2023-01-29T15:41:52.032Z,20.00
2023-01-29T15:44:24.812Z,19.90
2023-01-29T15:46:58.111Z,19.90
2023-01-29T15:49:40.295Z,19.90
2023-01-29T15:52:25.298Z,19.80
2023-01-29T15:54:57.470Z,19.70
2023-01-29T15:57:30.768Z,19.70
2023-01-29T16:00:02.060Z,19.70
2023-01-29T16:02:39.057Z,19.70
2023-01-29T16:05:10.059Z,19.60
2023-01-29T16:07:41.645Z,19.60
2023-01-29T16:10:16.743Z,19.50
2023-01-29T16:12:52.211Z,19.50
2023-01-29T16:15:41.341Z,19.50
2023-01-29T16:18:29.275Z,19.50
2023-01-29T16:21:02.516Z,19.40
2023-01-29T16:23:36.022Z,19.40
2023-01-29T16:26:12.479Z,19.40
2023-01-29T16:28:45.204Z,19.40
2023-01-29T16:31:17.851Z,19.40
2023-01-29T16:33:50.697Z,19.30
2023-01-29T16:36:29.269Z,19.30
2023-01-29T16:39:05.581Z,19.30
2023-01-29T16:41:39.283Z,19.20
2023-01-29T16:44:27.837Z,19.20
2023-01-29T16:46:58.629Z,19.20
2023-01-29T16:49:34.440Z,19.10
2023-01-29T16:52:24.236Z,19.10
2023-01-29T16:54:56.499Z,19.10
2023-01-29T16:57:34.182Z,19.10
2023-01-29T17:00:08.865Z,19.00
2023-01-29T17:02:44.047Z,19.00
2023-01-29T17:05:17.463Z,19.00
2023-01-29T17:07:52.940Z,19.00
2023-01-29T17:10:32.746Z,18.90
2023-01-29T17:13:11.407Z,18.90
2023-01-29T17:15:47.762Z,18.90
2023-01-29T17:18:21.212Z,18.90
2023-01-29T17:20:55.405Z,18.80
2023-01-29T17:23:26.579Z,18.80
2023-01-29T17:25:57.516Z,18.80
2023-01-29T17:28:28.497Z,18.80
2023-01-29T17:31:06.324Z,18.80
2023-01-29T17:33:31.400Z,18.70
2023-01-29T17:36:02.086Z,18.70
2023-01-29T17:38:33.007Z,18.70
2023-01-29T17:41:06.316Z,18.70
2023-01-29T17:43:37.998Z,18.70
2023-01-29T17:46:10.264Z,18.60
2023-01-29T17:48:41.208Z,18.60
2023-01-29T17:51:17.511Z,18.60
2023-01-29T17:53:48.501Z,18.60
2023-01-29T17:56:31.730Z,18.60
2023-01-29T17:59:02.937Z,18.60
2023-01-29T18:01:33.666Z,18.60
2023-01-29T18:04:04.448Z,18.60
2023-01-29T18:06:35.299Z,18.50
2023-01-29T18:09:07.649Z,18.50
2023-01-29T18:11:38.784Z,18.50
2023-01-29T18:14:13.910Z,18.50
2023-01-29T18:16:43.137Z,18.50
2023-01-29T18:19:26.821Z,18.50
2023-01-29T18:21:58.933Z,18.40
2023-01-29T18:24:29.612Z,18.40
2023-01-29T18:27:00.302Z,18.40
2023-01-29T18:29:31.417Z,18.30
2023-01-29T18:32:02.329Z,18.30
2023-01-29T18:34:33.281Z,18.30
2023-01-29T18:37:04.244Z,18.20
2023-01-29T18:39:34.963Z,18.20
2023-01-29T18:42:06.732Z,18.20
2023-01-29T18:44:37.963Z,18.10
2023-01-29T18:47:08.827Z,18.10
2023-01-29T18:49:40.382Z,18.10
2023-01-29T18:52:11.511Z,18.10
2023-01-29T18:54:42.759Z,18.10
2023-01-29T18:58:26.372Z,18.10
2023-01-29T18:59:45.500Z,18.10
2023-01-29T19:02:18.169Z,18.10
2023-01-29T19:04:49.592Z,18.00
2023-01-29T19:07:21.488Z,18.00
2023-01-29T19:09:52.271Z,18.00
2023-01-29T19:12:23.720Z,18.00
2023-01-29T19:14:54.571Z,17.90
2023-01-29T19:17:25.409Z,17.90
2023-01-29T19:19:57.580Z,17.90
2023-01-29T19:22:28.426Z,17.90
2023-01-29T19:25:02.374Z,17.80
2023-01-29T19:27:33.192Z,17.80
2023-01-29T19:30:05.265Z,17.80
2023-01-29T19:32:36.399Z,17.80
2023-01-29T19:35:07.658Z,17.80
2023-01-29T19:37:38.457Z,17.70
2023-01-29T19:40:10.217Z,17.70
2023-01-29T19:42:40.961Z,17.60
2023-01-29T19:45:12.489Z,17.60
2023-01-29T19:47:44.752Z,17.60
2023-01-29T19:50:15.443Z,17.70
2023-01-29T19:52:51.475Z,17.60
2023-01-29T19:55:19.259Z,17.60
2023-01-29T19:57:50.506Z,17.60
2023-01-29T20:00:22.527Z,17.60
2023-01-29T20:02:53.335Z,17.60
2023-01-29T20:05:25.109Z,17.60
2023-01-29T20:07:55.981Z,17.60
2023-01-29T20:10:26.638Z,17.50
2023-01-29T20:12:57.501Z,17.50
2023-01-29T20:15:28.310Z,17.50
2023-01-29T20:17:59.981Z,17.50
2023-01-29T20:20:31.206Z,17.40
2023-01-29T20:23:03.311Z,17.40
2023-01-29T20:25:34.015Z,17.40
2023-01-29T20:28:05.988Z,17.40
2023-01-29T20:30:37.675Z,17.40
2023-01-29T20:33:09.387Z,17.30
2023-01-29T20:35:40.630Z,17.30
2023-01-29T20:38:11.307Z,17.30
2023-01-29T20:40:42.009Z,17.30
2023-01-29T20:43:12.911Z,17.30
2023-01-29T20:45:43.779Z,17.20
2023-01-29T20:48:14.590Z,17.20
2023-01-29T20:50:45.809Z,17.20
2023-01-29T20:53:19.563Z,17.20
2023-01-29T20:55:50.658Z,17.20
2023-01-29T20:58:21.882Z,17.20
2023-01-29T21:00:52.930Z,17.20
2023-01-29T21:03:23.782Z,17.20
2023-01-29T21:05:57.380Z,17.20
2023-01-29T21:08:28.153Z,17.20
2023-01-29T21:10:59.014Z,17.20
2023-01-29T21:13:29.715Z,17.10
2023-01-29T21:16:00.993Z,17.10
2023-01-29T21:18:33.380Z,17.10
2023-01-29T21:21:04.085Z,17.00
2023-01-29T21:23:34.904Z,17.00
2023-01-29T21:26:09.810Z,17.00
2023-01-29T21:28:40.708Z,16.90
2023-01-29T21:31:13.166Z,16.90
2023-01-29T21:33:44.241Z,16.90
2023-01-29T21:36:15.465Z,16.90
2023-01-29T21:38:46.245Z,16.90
2023-01-29T21:41:17.096Z,16.90
2023-01-29T21:43:48.138Z,16.90
2023-01-29T21:46:20.945Z,16.80
2023-01-29T21:48:51.703Z,16.80
2023-01-29T21:51:22.384Z,16.80
2023-01-29T21:53:54.054Z,16.80
2023-01-29T21:56:24.998Z,16.80
2023-01-29T21:59:04.233Z,16.80
2023-01-29T22:01:37.571Z,16.80
2023-01-29T22:04:08.708Z,16.80
2023-01-29T22:06:39.558Z,16.80
2023-01-29T22:09:10.346Z,16.80
2023-01-29T22:11:42.703Z,16.80
2023-01-29T22:14:13.491Z,16.80
2023-01-29T22:16:44.264Z,16.80
2023-01-29T22:19:15.708Z,16.70
2023-01-29T22:21:51.969Z,16.70
2023-01-29T22:24:23.570Z,16.70
2023-01-29T22:26:54.337Z,16.70
2023-01-29T22:29:25.045Z,16.70
2023-01-29T22:31:57.251Z,16.60
2023-01-29T22:34:28.484Z,16.60
2023-01-29T22:36:59.171Z,16.60
2023-01-29T22:39:29.835Z,16.50
2023-01-29T22:42:00.801Z,16.50
2023-01-29T22:44:32.741Z,16.50
2023-01-29T22:47:06.481Z,16.50
2023-01-29T22:49:37.263Z,16.50
2023-01-29T22:52:14.836Z,16.50
2023-01-29T22:54:49.876Z,16.50
2023-01-29T22:57:20.943Z,16.40
2023-01-29T22:59:51.645Z,16.40
2023-01-29T23:02:22.605Z,16.40
2023-01-29T23:04:54.535Z,16.40
2023-01-29T23:07:25.445Z,16.40
2023-01-29T23:09:56.143Z,16.40
2023-01-29T23:12:26.904Z,16.40
2023-01-29T23:14:57.630Z,16.40
2023-01-29T23:17:28.375Z,16.40
2023-01-29T23:19:59.054Z,16.40
2023-01-29T23:22:29.813Z,16.30
2023-01-29T23:25:02.186Z,16.30
2023-01-29T23:27:32.962Z,16.30
2023-01-29T23:30:04.646Z,16.20
2023-01-29T23:32:35.650Z,16.20
2023-01-29T23:35:13.920Z,16.20
2023-01-29T23:37:44.639Z,16.20
2023-01-29T23:40:16.390Z,16.20
2023-01-29T23:42:50.988Z,16.20
2023-01-29T23:45:21.783Z,16.20
2023-01-29T23:47:52.487Z,16.10
2023-01-29T23:50:23.267Z,16.10
2023-01-29T23:52:54.165Z,16.10
2023-01-29T23:55:25.030Z,16.10
2023-01-29T23:57:57.195Z,16.00
